Time;durP1;ratioP1;P1;durP2;ratioP2;P2;SDS_P1;SDS_P2;PMS_P1;PMS_P2;Temp;Humidity;BMP_temperature;BMP_pressure;BME280_temperature;BME280_humidity;BME280_pressure;Samples;Min_cycle;Max_cycle;Signal;HPM_P1;HPM_P2
2022/07/19 00:00:12;;;;;;;9.02;4.57;;;18.50;99.90;;;;;;5028404;28;20057;-73
2022/07/19 00:02:39;;;;;;;7.93;4.38;;;18.50;99.90;;;;;;4994550;28;20390;-73
2022/07/19 00:05:07;;;;;;;8.35;4.28;;;18.40;99.90;;;;;;5026394;28;20073;-73
2022/07/19 00:07:32;;;;;;;6.97;4.97;;;18.40;99.90;;;;;;5009214;28;20042;-73
2022/07/19 00:09:58;;;;;;;9.13;4.63;;;18.40;99.90;;;;;;4992785;28;20064;-73
2022/07/19 00:12:24;;;;;;;9.75;4.68;;;18.40;99.90;;;;;;4991036;28;20128;-74
2022/07/19 00:14:50;;;;;;;9.85;4.63;;;18.30;99.90;;;;;;4994594;28;20038;-73
2022/07/19 00:17:16;;;;;;;6.55;4.68;;;18.30;99.90;;;;;;5006233;28;20447;-73
2022/07/19 00:19:41;;;;;;;6.32;4.63;;;18.30;99.90;;;;;;4994804;28;20084;-73
2022/07/19 00:22:07;;;;;;;6.75;4.95;;;18.30;99.90;;;;;;5028101;28;20065;-73
2022/07/19 00:24:33;;;;;;;7.03;4.90;;;18.20;99.90;;;;;;4994120;28;20033;-73
2022/07/19 00:26:58;;;;;;;6.72;4.47;;;18.20;99.90;;;;;;5008602;28;20441;-72
2022/07/19 00:29:24;;;;;;;6.78;4.53;;;18.20;99.90;;;;;;5026729;28;20038;-73
2022/07/19 00:31:50;;;;;;;5.82;5.05;;;18.10;99.90;;;;;;5029215;28;20374;-73
2022/07/19 00:34:15;;;;;;;7.10;4.60;;;18.10;99.90;;;;;;5028858;28;20402;-73
2022/07/19 00:36:42;;;;;;;6.88;5.28;;;18.10;99.90;;;;;;5017357;28;20081;-73
2022/07/19 00:39:07;;;;;;;8.80;4.47;;;18.00;99.90;;;;;;4995409;28;20046;-73
2022/07/19 00:41:39;;;;;;;5.95;4.25;;;18.00;99.90;;;;;;5032869;28;20057;-73
2022/07/19 00:44:05;;;;;;;6.40;5.53;;;18.00;99.90;;;;;;5029346;28;20061;-72
2022/07/19 00:46:31;;;;;;;6.47;5.38;;;18.00;99.90;;;;;;5000775;28;20157;-73
2022/07/19 00:48:57;;;;;;;8.15;5.65;;;18.00;99.90;;;;;;4995062;28;20049;-73
2022/07/19 00:51:23;;;;;;;6.80;4.53;;;18.00;99.90;;;;;;4982338;28;20128;-73
2022/07/19 00:53:50;;;;;;;7.10;4.93;;;17.90;99.90;;;;;;5026093;28;20046;-73
2022/07/19 00:56:16;;;;;;;6.68;4.57;;;17.90;99.90;;;;;;4997490;28;20049;-73
2022/07/19 00:58:42;;;;;;;7.57;4.70;;;17.90;99.90;;;;;;5026132;28;20068;-73
2022/07/19 01:01:09;;;;;;;8.20;5.03;;;17.90;99.90;;;;;;4997623;28;20038;-73
2022/07/19 01:03:37;;;;;;;4.95;4.45;;;17.90;99.90;;;;;;5010727;28;20145;-73
2022/07/19 01:06:03;;;;;;;8.68;4.40;;;17.90;99.90;;;;;;4997056;28;20042;-73
2022/07/19 01:08:29;;;;;;;7.00;4.53;;;17.90;99.90;;;;;;5028760;28;20042;-73
2022/07/19 01:10:55;;;;;;;7.47;4.93;;;17.90;99.90;;;;;;5026837;28;20122;-73
2022/07/19 01:13:20;;;;;;;7.47;5.35;;;17.80;99.90;;;;;;4994649;28;20084;-72
2022/07/19 01:15:46;;;;;;;9.38;4.30;;;17.80;99.90;;;;;;5027937;28;20410;-72
2022/07/19 01:18:12;;;;;;;7.72;4.88;;;17.80;99.90;;;;;;5030348;28;20183;-72
2022/07/19 01:20:37;;;;;;;6.47;4.60;;;17.80;99.90;;;;;;5026200;28;20046;-72
2022/07/19 01:23:04;;;;;;;7.45;5.05;;;17.80;99.90;;;;;;4997906;28;20050;-72
2022/07/19 01:25:32;;;;;;;6.97;5.30;;;17.70;99.90;;;;;;4994967;28;20470;-72
2022/07/19 01:27:58;;;;;;;11.48;4.95;;;17.70;99.90;;;;;;5031399;28;20374;-72
2022/07/19 01:30:25;;;;;;;6.32;4.22;;;17.70;99.90;;;;;;5027346;28;20099;-72
2022/07/19 01:32:52;;;;;;;6.50;4.57;;;17.70;99.90;;;;;;4983015;28;20469;-72
2022/07/19 01:35:18;;;;;;;6.88;4.57;;;17.70;99.90;;;;;;4995215;28;20089;-72
2022/07/19 01:37:44;;;;;;;6.30;5.18;;;17.60;99.90;;;;;;5011564;28;20049;-72
2022/07/19 01:40:12;;;;;;;7.57;4.93;;;17.60;99.90;;;;;;5028243;28;20433;-72
2022/07/19 01:42:39;;;;;;;5.25;4.75;;;17.60;99.90;;;;;;4989277;28;20066;-72
2022/07/19 01:45:06;;;;;;;7.43;4.93;;;17.50;99.90;;;;;;4996305;28;20042;-72
2022/07/19 01:47:32;;;;;;;7.53;5.40;;;17.50;99.90;;;;;;5028376;28;20559;-73
2022/07/19 01:49:58;;;;;;;7.88;5.43;;;17.50;99.90;;;;;;5009847;28;20100;-73
2022/07/19 01:52:23;;;;;;;7.55;4.85;;;17.50;99.90;;;;;;4993082;28;20110;-73
2022/07/19 01:54:49;;;;;;;6.03;5.43;;;17.50;99.90;;;;;;5013610;28;20037;-72
2022/07/19 01:57:15;;;;;;;6.90;4.57;;;17.50;99.90;;;;;;4995167;28;20592;-73
2022/07/19 01:59:41;;;;;;;9.15;5.28;;;17.40;99.90;;;;;;5028894;28;20054;-73
2022/07/19 02:02:07;;;;;;;10.32;5.45;;;17.40;99.90;;;;;;4994360;28;20458;-73
2022/07/19 02:04:33;;;;;;;6.70;5.43;;;17.40;99.90;;;;;;4999126;28;20025;-72
2022/07/19 02:06:58;;;;;;;6.80;4.75;;;17.30;99.90;;;;;;4993958;28;20799;-72
2022/07/19 02:09:25;;;;;;;8.20;5.10;;;17.30;99.90;;;;;;4996319;28;20056;-72
2022/07/19 02:11:51;;;;;;;7.60;5.10;;;17.30;99.90;;;;;;5027563;28;20100;-72
2022/07/19 02:14:17;;;;;;;7.00;4.80;;;17.20;99.90;;;;;;4995351;28;20036;-72
2022/07/19 02:16:43;;;;;;;7.78;5.35;;;17.20;99.90;;;;;;4994443;28;20433;-72
2022/07/19 02:19:10;;;;;;;7.45;4.78;;;17.20;99.90;;;;;;4993274;28;20489;-72
2022/07/19 02:21:36;;;;;;;7.63;5.78;;;17.10;99.90;;;;;;4992178;28;20046;-72
2022/07/19 02:24:04;;;;;;;7.70;5.47;;;17.10;99.90;;;;;;5028729;28;20034;-72
2022/07/19 02:26:30;;;;;;;9.80;5.60;;;17.10;99.90;;;;;;4992464;28;20382;-73
2022/07/19 02:28:56;;;;;;;7.03;4.72;;;17.10;99.90;;;;;;5027750;28;20031;-72
2022/07/19 02:31:22;;;;;;;8.23;5.35;;;17.00;99.90;;;;;;5028456;28;20190;-72
2022/07/19 02:33:48;;;;;;;7.05;5.20;;;17.10;99.90;;;;;;4993796;28;20049;-72
2022/07/19 02:36:14;;;;;;;6.45;5.00;;;17.00;99.90;;;;;;4997332;28;20030;-73
2022/07/19 02:38:40;;;;;;;7.50;5.07;;;17.00;99.90;;;;;;4995180;28;20050;-72
2022/07/19 02:41:06;;;;;;;8.98;5.53;;;17.00;99.90;;;;;;5012453;28;20037;-73
2022/07/19 02:43:32;;;;;;;6.80;5.13;;;16.90;99.90;;;;;;4990975;28;20038;-72
2022/07/19 02:45:57;;;;;;;9.15;4.97;;;16.90;99.90;;;;;;5033891;28;20057;-72
2022/07/19 02:48:23;;;;;;;6.03;5.20;;;16.90;99.90;;;;;;4992947;28;20085;-72
2022/07/19 02:50:49;;;;;;;5.95;4.55;;;16.90;99.90;;;;;;4997696;28;20041;-72
2022/07/19 02:53:15;;;;;;;7.80;4.68;;;16.90;99.90;;;;;;5009938;28;20069;-72
2022/07/19 02:55:40;;;;;;;7.97;5.38;;;16.80;99.90;;;;;;4994949;28;20091;-72
2022/07/19 02:58:06;;;;;;;9.30;5.38;;;16.80;99.90;;;;;;5025067;28;20545;-73
2022/07/19 03:00:32;;;;;;;7.70;5.18;;;16.80;99.90;;;;;;4994387;28;20128;-72
2022/07/19 03:05:43;;;;;;;;;;;16.80;99.90;;;;;;5027164;28;20464;-72
2022/07/19 03:08:08;;;;;;;6.75;5.03;;;16.70;99.90;;;;;;4977672;28;19922;-72
2022/07/19 03:10:34;;;;;;;8.63;5.32;;;16.70;99.90;;;;;;4974983;28;20054;-72
2022/07/19 03:13:00;;;;;;;7.55;5.40;;;16.70;99.90;;;;;;4992486;28;20042;-72
2022/07/19 03:15:25;;;;;;;9.68;5.40;;;16.70;99.90;;;;;;4993637;28;20084;-72
2022/07/19 03:17:51;;;;;;;7.32;5.18;;;16.70;99.90;;;;;;5010623;28;20570;-72
2022/07/19 03:20:17;;;;;;;7.75;5.15;;;16.60;99.90;;;;;;5011674;28;20044;-72
2022/07/19 03:22:42;;;;;;;6.90;5.20;;;16.60;99.90;;;;;;5028217;28;20042;-72
2022/07/19 03:25:08;;;;;;;7.95;5.35;;;16.60;99.90;;;;;;5025941;28;20131;-72
2022/07/19 03:27:34;;;;;;;5.72;4.75;;;16.50;99.90;;;;;;5029623;28;20048;-72
2022/07/19 03:30:00;;;;;;;7.43;5.55;;;16.60;99.90;;;;;;4991767;28;20050;-72
2022/07/19 03:32:26;;;;;;;9.15;5.82;;;16.60;99.90;;;;;;5016399;28;20374;-72
2022/07/19 03:34:52;;;;;;;8.55;5.93;;;16.60;99.90;;;;;;5008936;28;20155;-72
2022/07/19 03:37:17;;;;;;;8.38;5.55;;;16.60;99.90;;;;;;5026931;28;20050;-72
2022/07/19 03:39:43;;;;;;;11.18;5.60;;;16.60;99.90;;;;;;4992333;28;20042;-72
2022/07/19 03:42:09;;;;;;;8.93;5.72;;;16.60;99.90;;;;;;5027677;28;20042;-72
2022/07/19 03:44:34;;;;;;;6.97;5.25;;;16.60;99.90;;;;;;4990604;28;20139;-72
2022/07/19 03:47:00;;;;;;;8.40;5.40;;;16.50;99.90;;;;;;5025429;28;20042;-73
2022/07/19 03:49:26;;;;;;;7.45;5.40;;;16.60;99.90;;;;;;4993197;28;20050;-72
2022/07/19 03:51:51;;;;;;;6.05;5.28;;;16.50;99.90;;;;;;4992642;28;20048;-72
2022/07/19 03:54:17;;;;;;;7.13;5.03;;;16.60;99.90;;;;;;4993295;28;20045;-72
2022/07/19 03:56:43;;;;;;;7.78;5.28;;;16.60;99.90;;;;;;4993717;28;20058;-72
2022/07/19 03:59:09;;;;;;;7.00;5.72;;;16.60;99.90;;;;;;4987415;28;20046;-72
2022/07/19 04:01:34;;;;;;;6.93;5.55;;;16.60;99.90;;;;;;5025078;28;20080;-72
2022/07/19 04:04:00;;;;;;;8.52;5.20;;;16.50;99.90;;;;;;4997556;28;20054;-72
2022/07/19 04:06:26;;;;;;;8.15;5.70;;;16.50;99.90;;;;;;5030013;28;20050;-72
2022/07/19 04:08:52;;;;;;;9.15;5.38;;;16.60;99.90;;;;;;4980008;28;20045;-72
2022/07/19 04:11:17;;;;;;;9.20;5.40;;;16.60;99.90;;;;;;5029282;28;20408;-72
2022/07/19 04:13:43;;;;;;;8.00;5.70;;;16.60;99.90;;;;;;5017143;28;20049;-72
2022/07/19 04:16:09;;;;;;;9.93;6.65;;;16.60;99.90;;;;;;4994304;28;20530;-72
2022/07/19 04:18:34;;;;;;;8.73;5.57;;;16.60;99.90;;;;;;5002271;28;20041;-72
2022/07/19 04:21:00;;;;;;;9.32;6.20;;;16.60;99.90;;;;;;5012267;28;20441;-72
2022/07/19 04:23:26;;;;;;;8.85;6.13;;;16.70;99.90;;;;;;5032549;28;20080;-72
2022/07/19 04:25:52;;;;;;;7.57;5.75;;;16.70;99.90;;;;;;5029187;28;20041;-72
2022/07/19 04:28:17;;;;;;;7.75;6.13;;;16.80;99.90;;;;;;5029080;28;20030;-72
2022/07/19 04:30:43;;;;;;;7.95;5.90;;;16.80;99.90;;;;;;4996974;28;20129;-72
2022/07/19 04:33:08;;;;;;;10.38;6.10;;;16.80;99.90;;;;;;4998025;28;20069;-72
2022/07/19 04:35:34;;;;;;;14.82;11.68;;;16.90;99.90;;;;;;5027736;28;20073;-72
2022/07/19 04:38:00;;;;;;;148.00;131.95;;;16.90;99.90;;;;;;5014534;28;20421;-72
2022/07/19 04:40:25;;;;;;;11.73;8.15;;;17.00;99.90;;;;;;5031082;28;20045;-72
2022/07/19 04:42:51;;;;;;;7.72;6.63;;;17.10;99.90;;;;;;5029928;28;20048;-72
2022/07/19 04:45:17;;;;;;;11.80;6.47;;;17.20;99.90;;;;;;5029721;28;20440;-72
2022/07/19 04:47:42;;;;;;;8.65;5.80;;;17.30;99.90;;;;;;5027832;28;20221;-72
2022/07/19 04:50:08;;;;;;;8.63;6.20;;;17.30;99.90;;;;;;5032021;28;20057;-72
2022/07/19 04:52:34;;;;;;;9.10;5.82;;;17.50;99.90;;;;;;5011366;28;20045;-72
2022/07/19 04:55:00;;;;;;;10.88;6.28;;;17.60;99.90;;;;;;5029383;28;20559;-72
2022/07/19 04:57:25;;;;;;;7.82;5.85;;;17.70;99.90;;;;;;4994395;28;20042;-72
2022/07/19 04:59:51;;;;;;;7.00;5.70;;;17.80;99.90;;;;;;5029859;28;20165;-72
2022/07/19 05:02:16;;;;;;;9.85;5.60;;;18.00;99.90;;;;;;4994965;28;20049;-72
2022/07/19 05:04:42;;;;;;;6.90;5.68;;;18.20;99.90;;;;;;4978881;28;20405;-72
2022/07/19 05:07:08;;;;;;;8.65;6.78;;;18.60;99.90;;;;;;4995672;28;20540;-72
2022/07/19 05:09:34;;;;;;;12.40;7.78;;;18.80;99.90;;;;;;4995837;28;20136;-72
2022/07/19 05:12:00;;;;;;;13.48;6.68;;;18.90;99.90;;;;;;4993737;28;20149;-72
2022/07/19 05:14:26;;;;;;;10.73;6.18;;;19.20;99.90;;;;;;5029958;28;20045;-72
2022/07/19 05:16:51;;;;;;;9.85;6.00;;;19.50;99.90;;;;;;5029302;28;20536;-72
2022/07/19 05:19:18;;;;;;;8.75;5.93;;;19.80;99.90;;;;;;5012616;28;20116;-72
2022/07/19 05:21:43;;;;;;;8.57;6.10;;;19.90;99.90;;;;;;4997078;28;20112;-72
2022/07/19 05:24:09;;;;;;;11.38;6.05;;;20.00;99.90;;;;;;5013283;28;20119;-72
2022/07/19 05:26:35;;;;;;;8.25;5.35;;;20.20;99.90;;;;;;4998952;28;20089;-72
2022/07/19 05:29:02;;;;;;;7.88;5.68;;;20.60;99.90;;;;;;5020834;28;20042;-72
2022/07/19 05:31:28;;;;;;;9.80;6.30;;;20.80;99.90;;;;;;4997156;28;20156;-72
2022/07/19 05:33:54;;;;;;;10.95;6.15;;;20.80;99.90;;;;;;4993404;28;20050;-72
2022/07/19 05:36:20;;;;;;;8.98;6.00;;;20.70;99.90;;;;;;5027238;28;20167;-72
2022/07/19 05:38:46;;;;;;;10.77;6.30;;;20.60;99.90;;;;;;5024991;28;20131;-72
2022/07/19 05:41:12;;;;;;;7.32;5.60;;;20.50;99.90;;;;;;5012130;28;20053;-72
2022/07/19 05:43:38;;;;;;;9.30;5.60;;;20.40;99.90;;;;;;4995288;28;20382;-72
2022/07/19 05:46:04;;;;;;;8.23;5.65;;;20.40;99.90;;;;;;5030268;28;20038;-71
2022/07/19 05:48:30;;;;;;;8.10;5.25;;;20.40;99.90;;;;;;4994484;28;20077;-71
2022/07/19 05:50:57;;;;;;;6.97;5.25;;;20.50;99.90;;;;;;4995725;28;20037;-71
2022/07/19 05:53:23;;;;;;;11.25;6.00;;;20.50;99.90;;;;;;5026195;28;20076;-71
2022/07/19 05:55:48;;;;;;;8.68;6.07;;;20.60;99.90;;;;;;4995723;28;20038;-71
2022/07/19 05:58:17;;;;;;;10.00;6.38;;;20.70;99.90;;;;;;5009715;28;20394;-71
2022/07/19 06:01:17;;;;;;;12.30;8.98;;;20.70;99.90;;;;;;5028644;28;20045;-71
2022/07/19 06:03:29;;;;;;;10.88;6.40;;;20.80;99.90;;;;;;4994948;28;20050;-71
2022/07/19 06:05:55;;;;;;;8.25;5.82;;;20.90;99.90;;;;;;4996301;28;20053;-71
2022/07/19 06:08:21;;;;;;;7.55;6.00;;;21.00;99.90;;;;;;5009810;28;20046;-72
2022/07/19 06:10:47;;;;;;;9.98;6.10;;;21.10;99.90;;;;;;4995994;28;20417;-72
2022/07/19 06:13:12;;;;;;;12.93;6.13;;;21.20;99.90;;;;;;4997769;28;20458;-72
2022/07/19 06:15:38;;;;;;;8.07;5.95;;;21.30;99.90;;;;;;4990305;28;20458;-72
2022/07/19 06:18:03;;;;;;;7.13;5.60;;;21.40;99.90;;;;;;4999568;28;20090;-73
2022/07/19 06:20:29;;;;;;;9.43;5.53;;;21.50;99.90;;;;;;4993543;28;20046;-73
2022/07/19 06:22:55;;;;;;;7.72;6.22;;;21.60;99.90;;;;;;5033791;28;20065;-73
2022/07/19 06:25:21;;;;;;;11.68;5.60;;;21.70;99.90;;;;;;5026651;28;20072;-73
2022/07/19 06:27:46;;;;;;;7.95;5.90;;;21.80;99.90;;;;;;4996040;28;20551;-72
2022/07/19 06:30:12;;;;;;;8.75;5.68;;;21.90;99.90;;;;;;5026577;28;20375;-72
2022/07/19 06:32:38;;;;;;;6.95;5.03;;;22.00;99.90;;;;;;5028532;28;20084;-72
2022/07/19 06:35:04;;;;;;;8.07;5.05;;;22.10;99.90;;;;;;5024908;28;20045;-72
2022/07/19 06:37:29;;;;;;;9.63;5.28;;;22.30;99.90;;;;;;5027666;28;20046;-72
2022/07/19 06:39:55;;;;;;;10.82;5.22;;;22.40;99.20;;;;;;4994445;28;20432;-72
2022/07/19 06:42:21;;;;;;;9.68;5.53;;;22.50;98.90;;;;;;4993680;28;20045;-72
2022/07/19 06:44:47;;;;;;;8.18;5.43;;;22.60;98.80;;;;;;5009238;28;20060;-72
2022/07/19 06:47:13;;;;;;;8.55;5.80;;;22.70;98.60;;;;;;4994921;28;20053;-73
2022/07/19 06:49:39;;;;;;;9.55;5.03;;;22.80;99.10;;;;;;4993828;28;20415;-73
2022/07/19 06:52:05;;;;;;;9.00;4.70;;;22.90;98.80;;;;;;4991692;28;20478;-72
2022/07/19 06:54:30;;;;;;;9.82;5.30;;;23.10;99.00;;;;;;5010267;28;20129;-72
2022/07/19 06:56:56;;;;;;;7.60;5.60;;;23.20;99.10;;;;;;5025140;28;20117;-72
2022/07/19 06:59:22;;;;;;;6.75;5.03;;;23.40;98.50;;;;;;5030142;28;20486;-72
2022/07/19 07:01:48;;;;;;;9.30;4.55;;;23.60;98.10;;;;;;4992764;28;20049;-72
2022/07/19 07:04:13;;;;;;;8.93;4.50;;;23.70;97.60;;;;;;5001149;28;20589;-72
2022/07/19 07:06:39;;;;;;;9.75;5.85;;;23.90;96.90;;;;;;5024424;28;20052;-72
2022/07/19 07:09:05;;;;;;;7.57;5.20;;;24.10;96.70;;;;;;4983059;28;20060;-72
2022/07/19 07:11:31;;;;;;;8.60;4.93;;;24.20;96.40;;;;;;5026382;28;20115;-72
2022/07/19 07:13:56;;;;;;;7.43;5.35;;;24.40;96.10;;;;;;5026122;28;20048;-72
2022/07/19 07:16:22;;;;;;;12.10;5.90;;;24.50;95.70;;;;;;5025716;28;20486;-72
2022/07/19 07:18:48;;;;;;;8.32;5.43;;;24.70;94.40;;;;;;4994667;28;20041;-72
2022/07/19 07:21:13;;;;;;;6.75;4.78;;;24.80;94.60;;;;;;5026303;28;20073;-72
2022/07/19 07:23:39;;;;;;;8.95;4.55;;;25.00;93.50;;;;;;4996221;28;20465;-72
2022/07/19 07:26:05;;;;;;;8.57;4.72;;;25.20;92.50;;;;;;4991998;28;20448;-72
2022/07/19 07:28:31;;;;;;;7.65;4.78;;;25.30;92.60;;;;;;4977549;28;20045;-72
2022/07/19 07:30:57;;;;;;;10.68;4.63;;;25.40;92.10;;;;;;4991095;28;20115;-72
2022/07/19 07:33:23;;;;;;;7.28;4.45;;;25.50;91.70;;;;;;5028014;28;20033;-73
2022/07/19 07:35:49;;;;;;;6.10;4.15;;;25.70;92.10;;;;;;5028403;28;20084;-73
2022/07/19 07:38:14;;;;;;;8.65;4.50;;;26.00;92.60;;;;;;4992982;28;20034;-73
2022/07/19 07:40:40;;;;;;;7.50;3.85;;;26.20;91.70;;;;;;4994213;28;20034;-73
2022/07/19 07:43:06;;;;;;;4.50;3.53;;;26.40;91.20;;;;;;5024333;28;20041;-73
2022/07/19 07:45:32;;;;;;;8.20;5.70;;;26.50;91.30;;;;;;5026787;28;20121;-73
2022/07/19 07:47:59;;;;;;;5.43;3.80;;;26.70;88.40;;;;;;4992464;28;20048;-73
2022/07/19 07:50:24;;;;;;;5.57;3.47;;;26.90;86.10;;;;;;5026073;28;20092;-73
2022/07/19 07:52:50;;;;;;;6.13;4.13;;;27.00;84.10;;;;;;5006694;28;20050;-73
2022/07/19 07:55:16;;;;;;;6.25;3.40;;;27.00;85.70;;;;;;5029688;28;20076;-73
2022/07/19 07:57:42;;;;;;;6.10;3.60;;;27.20;86.00;;;;;;5021113;28;20084;-73
2022/07/19 08:00:11;;;;;;;6.32;3.15;;;27.40;86.40;;;;;;5026409;28;20122;-73
2022/07/19 08:02:41;;;;;;;7.43;3.20;;;27.50;83.60;;;;;;4976254;28;20407;-73
2022/07/19 08:05:08;;;;;;;5.07;3.30;;;27.70;83.60;;;;;;4992360;28;20029;-73
2022/07/19 08:07:35;;;;;;;4.47;2.97;;;27.90;83.30;;;;;;4993900;28;20077;-73
2022/07/19 08:10:02;;;;;;;4.82;2.75;;;28.20;80.30;;;;;;4992709;28;20044;-73
2022/07/19 08:12:28;;;;;;;6.95;2.63;;;28.50;80.30;;;;;;4975417;28;20026;-74
2022/07/19 08:14:54;;;;;;;4.45;2.67;;;28.70;79.50;;;;;;4995606;28;20129;-73
2022/07/19 08:17:19;;;;;;;6.78;3.15;;;29.10;79.10;;;;;;5025040;28;20073;-74
2022/07/19 08:19:45;;;;;;;5.53;2.88;;;29.60;75.10;;;;;;4992563;28;20042;-74
2022/07/19 08:22:15;;;;;;;6.68;3.28;;;30.10;74.30;;;;;;5025565;28;20050;-74
2022/07/19 08:24:41;;;;;;;5.13;2.60;;;30.60;73.80;;;;;;4991882;28;20046;-74
2022/07/19 08:27:07;;;;;;;5.50;2.42;;;31.00;72.40;;;;;;5022258;28;20069;-74
2022/07/19 08:29:32;;;;;;;4.95;2.78;;;31.30;69.90;;;;;;5023153;28;20587;-74
2022/07/19 08:31:58;;;;;;;3.53;2.47;;;31.60;67.90;;;;;;4995195;28;20399;-74
2022/07/19 08:34:24;;;;;;;6.35;2.30;;;31.80;65.00;;;;;;5024541;28;20159;-74
2022/07/19 08:36:50;;;;;;;3.42;2.28;;;31.90;65.80;;;;;;4993725;28;20041;-74
2022/07/19 08:39:15;;;;;;;4.53;2.53;;;32.10;64.70;;;;;;4991914;28;20042;-74
2022/07/19 08:41:44;;;;;;;5.70;2.30;;;32.30;64.30;;;;;;5007600;28;20112;-74
2022/07/19 08:44:10;;;;;;;4.25;1.85;;;32.50;62.80;;;;;;4992199;28;20108;-74
2022/07/19 08:46:37;;;;;;;2.97;1.75;;;32.70;61.00;;;;;;5024608;28;20370;-74
2022/07/19 08:49:02;;;;;;;5.47;2.67;;;32.80;59.90;;;;;;5007600;28;20049;-74
2022/07/19 08:51:28;;;;;;;5.45;2.10;;;33.00;58.80;;;;;;5031686;28;20041;-74
2022/07/19 08:53:54;;;;;;;4.53;2.05;;;33.10;58.50;;;;;;5028880;28;20038;-73
2022/07/19 08:59:05;;;;;;;3.55;1.50;;;33.30;57.90;;;;;;4995093;28;20520;-74
2022/07/19 09:01:31;;;;;;;5.25;1.50;;;33.50;57.70;;;;;;5030107;28;20049;-74
2022/07/19 09:04:20;;;;;;;6.90;1.77;;;33.70;55.80;;;;;;5017464;28;20098;-74
2022/07/19 09:06:48;;;;;;;2.95;1.50;;;33.90;54.10;;;;;;4997617;28;20120;-74
2022/07/19 09:09:20;;;;;;;3.55;1.40;;;34.00;54.60;;;;;;4997463;28;20046;-74
2022/07/19 09:11:51;;;;;;;4.03;1.33;;;34.10;54.70;;;;;;4996978;28;20068;-74
2022/07/19 09:14:25;;;;;;;2.58;1.38;;;34.20;53.40;;;;;;5012880;28;20053;-74
2022/07/19 09:16:53;;;;;;;5.78;1.65;;;34.30;51.70;;;;;;5026963;28;20052;-74
2022/07/19 09:19:19;;;;;;;4.63;1.48;;;34.40;52.00;;;;;;5029042;28;20053;-74
2022/07/19 09:22:05;;;;;;;5.07;1.27;;;34.40;50.60;;;;;;5026668;28;20053;-74
2022/07/19 09:24:36;;;;;;;3.92;1.30;;;34.50;51.40;;;;;;4985069;28;20038;-73
2022/07/19 09:27:11;;;;;;;6.05;1.50;;;34.60;49.10;;;;;;4993786;28;20046;-73
2022/07/19 09:29:39;;;;;;;4.03;1.00;;;34.70;50.40;;;;;;5027411;28;20108;-73
2022/07/19 09:32:08;;;;;;;4.55;1.50;;;34.80;49.90;;;;;;4994230;28;20046;-73
2022/07/19 09:34:36;;;;;;;5.05;1.25;;;34.90;49.40;;;;;;5023780;28;20049;-73
2022/07/19 09:37:11;;;;;;;3.40;1.35;;;35.00;48.10;;;;;;4994314;28;20041;-74
2022/07/19 09:39:47;;;;;;;3.42;1.40;;;35.10;47.70;;;;;;4986249;28;20038;-73
2022/07/19 09:42:14;;;;;;;8.13;1.77;;;35.20;47.20;;;;;;5008523;28;20386;-74
2022/07/19 09:44:40;;;;;;;5.05;1.25;;;35.30;47.40;;;;;;4998910;28;20034;-74
2022/07/19 09:47:06;;;;;;;1.98;1.00;;;35.30;48.10;;;;;;4994950;28;20046;-75
2022/07/19 09:49:32;;;;;;;3.15;1.40;;;35.30;46.10;;;;;;5018237;28;20038;-75
2022/07/19 09:51:58;;;;;;;3.35;1.38;;;35.40;45.10;;;;;;5011767;28;20061;-74
2022/07/19 09:54:26;;;;;;;2.38;1.17;;;35.50;45.10;;;;;;4984125;28;20567;-74
2022/07/19 09:56:54;;;;;;;4.10;1.40;;;35.90;45.80;;;;;;4996876;28;20053;-74
2022/07/19 09:59:21;;;;;;;3.20;1.15;;;36.10;46.00;;;;;;4998846;28;20056;-74
2022/07/19 10:01:49;;;;;;;2.33;1.10;;;36.40;45.00;;;;;;5025400;28;20550;-74
2022/07/19 10:04:18;;;;;;;8.23;1.38;;;36.50;44.70;;;;;;4995213;28;20172;-75
2022/07/19 10:06:45;;;;;;;2.47;1.17;;;36.60;42.50;;;;;;4994855;28;20045;-74
2022/07/19 10:09:13;;;;;;;2.67;1.23;;;36.60;42.80;;;;;;5029597;28;20501;-74
2022/07/19 10:11:40;;;;;;;5.38;1.15;;;36.70;43.20;;;;;;4994440;28;20053;-74
2022/07/19 10:14:06;;;;;;;4.15;1.15;;;36.80;40.60;;;;;;4994663;28;20037;-74
2022/07/19 10:16:43;;;;;;;4.32;1.27;;;36.80;40.40;;;;;;4994235;28;20100;-74
2022/07/19 10:19:16;;;;;;;5.32;1.42;;;36.90;40.90;;;;;;4997245;28;20030;-74
2022/07/19 10:21:44;;;;;;;5.47;1.63;;;37.10;40.70;;;;;;5026310;28;20077;-74
2022/07/19 10:24:10;;;;;;;4.38;1.02;;;37.00;39.70;;;;;;4994768;28;20458;-74
2022/07/19 10:26:35;;;;;;;4.47;1.52;;;37.00;41.20;;;;;;4978141;28;20049;-74
2022/07/19 10:29:30;;;;;;;3.78;1.27;;;37.00;39.50;;;;;;5011877;28;20045;-74
2022/07/19 10:32:08;;;;;;;3.42;1.45;;;37.00;39.60;;;;;;4979243;28;20056;-75
2022/07/19 10:34:34;;;;;;;1.98;0.90;;;37.00;40.00;;;;;;5027755;28;20037;-75
2022/07/19 10:36:59;;;;;;;3.45;1.10;;;37.10;40.20;;;;;;4993635;28;20042;-75
2022/07/19 10:39:34;;;;;;;2.63;0.98;;;37.20;39.40;;;;;;4993705;28;20041;-75
2022/07/19 10:42:09;;;;;;;2.08;0.95;;;37.50;38.60;;;;;;4978267;28;20046;-75
2022/07/19 10:44:59;;;;;;;3.88;1.35;;;37.70;38.60;;;;;;5025002;28;20060;-74
2022/07/19 10:47:37;;;;;;;6.38;1.20;;;37.80;40.30;;;;;;4991936;28;20080;-74
2022/07/19 10:50:10;;;;;;;2.75;1.05;;;37.90;37.80;;;;;;5026215;28;20041;-74
2022/07/19 10:52:40;;;;;;;6.68;1.52;;;37.80;37.50;;;;;;4992797;28;20121;-74
2022/07/19 10:55:29;;;;;;;5.43;1.17;;;37.60;37.90;;;;;;5026139;28;20540;-74
2022/07/19 10:58:06;;;;;;;4.13;1.10;;;37.80;38.30;;;;;;4993540;28;20056;-77
2022/07/19 11:00:47;;;;;;;3.17;1.00;;;37.90;39.80;;;;;;5013335;28;20049;-74
2022/07/19 11:03:22;;;;;;;5.60;1.10;;;38.20;39.00;;;;;;4981565;28;20034;-73
2022/07/19 11:05:54;;;;;;;3.30;1.38;;;38.20;38.30;;;;;;4997925;28;20125;-73
2022/07/19 11:08:33;;;;;;;6.80;1.50;;;38.10;38.90;;;;;;5011273;28;20670;-73
2022/07/19 11:11:14;;;;;;;3.78;1.02;;;38.20;36.80;;;;;;4996828;28;20041;-74
2022/07/19 11:13:44;;;;;;;3.35;1.33;;;38.10;36.90;;;;;;4992992;28;20046;-74
2022/07/19 11:16:10;;;;;;;4.65;1.40;;;38.00;38.70;;;;;;4992512;28;20513;-74
2022/07/19 11:18:36;;;;;;;7.07;2.65;;;38.30;37.50;;;;;;5026734;28;20038;-73
2022/07/19 11:21:04;;;;;;;5.10;1.35;;;38.40;35.80;;;;;;4992842;28;20124;-73
2022/07/19 11:23:35;;;;;;;5.20;1.35;;;38.30;35.50;;;;;;4993315;28;20433;-73
2022/07/19 11:26:20;;;;;;;4.90;1.13;;;38.30;36.20;;;;;;4993462;28;20060;-73
2022/07/19 11:28:49;;;;;;;3.70;1.10;;;38.40;36.80;;;;;;4984830;28;20042;-73
2022/07/19 11:31:18;;;;;;;5.05;1.30;;;38.70;36.40;;;;;;5026173;28;20038;-73
2022/07/19 11:33:45;;;;;;;2.38;0.98;;;38.70;35.40;;;;;;5009061;28;20054;-73
2022/07/19 11:36:15;;;;;;;5.50;1.00;;;38.60;36.00;;;;;;4975456;28;20052;-75
2022/07/19 11:38:45;;;;;;;3.08;1.20;;;38.60;37.00;;;;;;4994395;28;20042;-76
2022/07/19 11:41:13;;;;;;;7.30;1.05;;;38.60;36.00;;;;;;5009386;28;20042;-75
2022/07/19 11:43:40;;;;;;;4.93;1.48;;;38.70;35.20;;;;;;5010254;28;20046;-73
2022/07/19 11:46:06;;;;;;;3.05;1.05;;;38.70;35.80;;;;;;4990240;28;20046;-74
2022/07/19 11:48:31;;;;;;;3.17;1.00;;;38.80;35.50;;;;;;4996766;28;20456;-75
2022/07/19 11:51:02;;;;;;;4.85;1.10;;;38.80;36.40;;;;;;5025172;28;20454;-76
2022/07/19 11:53:27;;;;;;;4.38;1.42;;;39.00;35.50;;;;;;4980861;28;20092;-75
2022/07/19 11:55:53;;;;;;;9.38;1.17;;;39.10;36.00;;;;;;5008487;28;20622;-75
2022/07/19 11:58:19;;;;;;;5.20;1.15;;;39.30;35.50;;;;;;5024498;28;20052;-75
2022/07/19 12:00:45;;;;;;;4.82;1.10;;;39.60;35.10;;;;;;5027483;28;20050;-75
2022/07/19 12:03:15;;;;;;;4.50;1.00;;;39.70;34.20;;;;;;4981282;28;20367;-73
2022/07/19 12:05:55;;;;;;;2.97;0.90;;;39.70;33.10;;;;;;4991974;28;20120;-74
2022/07/19 12:08:31;;;;;;;1.50;0.80;;;39.50;33.80;;;;;;4994133;28;20431;-74
2022/07/19 12:10:56;;;;;;;2.83;1.00;;;39.50;34.10;;;;;;5024859;28;20034;-74
2022/07/19 12:13:31;;;;;;;6.55;0.77;;;39.70;34.20;;;;;;4993456;28;20533;-73
2022/07/19 12:16:02;;;;;;;4.22;0.90;;;39.80;33.40;;;;;;5007988;28;20053;-74
2022/07/19 12:18:53;;;;;;;2.33;0.70;;;39.80;33.00;;;;;;4992562;28;20084;-73
2022/07/19 12:21:24;;;;;;;3.53;0.85;;;39.90;32.20;;;;;;4989678;28;20644;-73
2022/07/19 12:24:35;;;;;;;4.38;0.70;;;39.70;32.60;;;;;;5027613;28;20053;-73
2022/07/19 12:27:06;;;;;;;3.75;0.80;;;39.60;34.20;;;;;;4977669;28;20061;-74
2022/07/19 12:29:44;;;;;;;1.53;0.70;;;39.70;33.90;;;;;;5032157;28;20042;-74
2022/07/19 12:32:11;;;;;;;2.78;1.00;;;39.80;33.80;;;;;;4986163;28;20655;-74
2022/07/19 12:34:46;;;;;;;1.50;0.80;;;39.90;34.10;;;;;;4983098;28;20053;-74
2022/07/19 12:37:28;;;;;;;4.40;0.95;;;40.00;33.20;;;;;;4994993;28;20093;-74
2022/07/19 12:40:04;;;;;;;;;;;40.20;33.30;;;;;;5016922;28;20177;-74
2022/07/19 12:43:05;;;;;;;3.42;0.85;;;40.10;32.80;;;;;;4996274;28;19988;-73
2022/07/19 12:45:33;;;;;;;2.40;0.93;;;40.10;31.20;;;;;;5002681;28;20041;-73
2022/07/19 12:48:00;;;;;;;2.50;0.80;;;40.10;33.20;;;;;;4973400;28;20308;-74
2022/07/19 12:50:27;;;;;;;3.83;0.95;;;40.20;31.20;;;;;;4979138;28;20788;-74
2022/07/19 12:52:55;;;;;;;3.63;0.70;;;40.10;31.80;;;;;;4995486;28;20145;-75